sensor_id;sensor_type;location;lat;lon;timestamp;temperature;humidity
20915;DHT22;10617;52.032;5.298;2022-08-21T00:01:57;17.40;99.90
20915;DHT22;10617;52.032;5.298;2022-08-21T00:05:59;17.30;99.90
20915;DHT22;10617;52.032;5.298;2022-08-21T00:10:00;17.30;99.90
20915;DHT22;10617;52.032;5.298;2022-08-21T00:14:03;17.30;99.90
20915;DHT22;10617;52.032;5.298;2022-08-21T00:18:06;17.30;99.90
20915;DHT22;10617;52.032;5.298;2022-08-21T00:22:08;17.20;99.90
20915;DHT22;10617;52.032;5.298;2022-08-21T00:26:10;17.20;99.90
20915;DHT22;10617;52.032;5.298;2022-08-21T00:30:12;17.10;99.90
20915;DHT22;10617;52.032;5.298;2022-08-21T00:34:24;17.10;99.90
20915;DHT22;10617;52.032;5.298;2022-08-21T00:38:25;17.10;99.90
20915;DHT22;10617;52.032;5.298;2022-08-21T00:42:27;17.00;99.90
20915;DHT22;10617;52.032;5.298;2022-08-21T00:46:29;17.00;99.90
20915;DHT22;10617;52.032;5.298;2022-08-21T00:50:33;16.90;99.90
20915;DHT22;10617;52.032;5.298;2022-08-21T00:54:36;16.90;99.90
20915;DHT22;10617;52.032;5.298;2022-08-21T00:58:39;16.80;99.90
20915;DHT22;10617;52.032;5.298;2022-08-21T01:02:42;16.80;99.90
20915;DHT22;10617;52.032;5.298;2022-08-21T01:06:43;16.70;99.90
20915;DHT22;10617;52.032;5.298;2022-08-21T01:10:45;16.70;99.90
20915;DHT22;10617;52.032;5.298;2022-08-21T01:14:48;16.70;99.90
20915;DHT22;10617;52.032;5.298;2022-08-21T01:18:50;16.60;99.90
20915;DHT22;10617;52.032;5.298;2022-08-21T01:22:52;16.60;99.90
20915;DHT22;10617;52.032;5.298;2022-08-21T01:26:54;16.60;99.90
20915;DHT22;10617;52.032;5.298;2022-08-21T01:30:55;16.50;99.90
20915;DHT22;10617;52.032;5.298;2022-08-21T01:34:57;16.50;99.90
20915;DHT22;10617;52.032;5.298;2022-08-21T01:38:59;16.50;99.90
20915;DHT22;10617;52.032;5.298;2022-08-21T01:43:00;16.50;99.90
20915;DHT22;10617;52.032;5.298;2022-08-21T01:47:04;16.50;99.90
20915;DHT22;10617;52.032;5.298;2022-08-21T01:51:06;16.50;99.90
20915;DHT22;10617;52.032;5.298;2022-08-21T01:55:08;16.40;99.90
20915;DHT22;10617;52.032;5.298;2022-08-21T01:59:10;16.30;99.90
20915;DHT22;10617;52.032;5.298;2022-08-21T02:03:11;16.30;99.90
20915;DHT22;10617;52.032;5.298;2022-08-21T02:07:13;16.30;99.90
20915;DHT22;10617;52.032;5.298;2022-08-21T02:11:16;16.20;99.90
20915;DHT22;10617;52.032;5.298;2022-08-21T02:15:18;16.20;99.90
20915;DHT22;10617;52.032;5.298;2022-08-21T02:19:20;16.10;99.90
20915;DHT22;10617;52.032;5.298;2022-08-21T02:23:22;16.10;99.90
20915;DHT22;10617;52.032;5.298;2022-08-21T02:27:27;16.10;99.90
20915;DHT22;10617;52.032;5.298;2022-08-21T02:31:29;16.00;99.90
20915;DHT22;10617;52.032;5.298;2022-08-21T02:35:31;16.00;99.90
20915;DHT22;10617;52.032;5.298;2022-08-21T02:39:33;16.00;99.90
20915;DHT22;10617;52.032;5.298;2022-08-21T02:43:35;15.90;99.90
20915;DHT22;10617;52.032;5.298;2022-08-21T02:47:37;15.90;99.90
20915;DHT22;10617;52.032;5.298;2022-08-21T02:51:38;15.90;99.90
20915;DHT22;10617;52.032;5.298;2022-08-21T02:55:40;15.80;99.90
20915;DHT22;10617;52.032;5.298;2022-08-21T02:59:41;15.80;99.90
20915;DHT22;10617;52.032;5.298;2022-08-21T03:03:44;15.80;99.90
20915;DHT22;10617;52.032;5.298;2022-08-21T03:07:47;15.80;99.90
20915;DHT22;10617;52.032;5.298;2022-08-21T03:11:48;15.70;99.90
20915;DHT22;10617;52.032;5.298;2022-08-21T03:15:50;15.70;99.90
20915;DHT22;10617;52.032;5.298;2022-08-21T03:19:52;15.70;99.90
20915;DHT22;10617;52.032;5.298;2022-08-21T03:23:53;15.70;99.90
20915;DHT22;10617;52.032;5.298;2022-08-21T03:27:55;15.60;99.90
20915;DHT22;10617;52.032;5.298;2022-08-21T03:31:59;15.60;99.90
20915;DHT22;10617;52.032;5.298;2022-08-21T03:36:03;15.50;99.90
20915;DHT22;10617;52.032;5.298;2022-08-21T03:40:05;15.50;99.90
20915;DHT22;10617;52.032;5.298;2022-08-21T03:44:07;15.40;99.90
20915;DHT22;10617;52.032;5.298;2022-08-21T03:48:09;15.40;99.90
20915;DHT22;10617;52.032;5.298;2022-08-21T03:52:10;15.40;99.90
20915;DHT22;10617;52.032;5.298;2022-08-21T03:56:12;15.40;99.90
20915;DHT22;10617;52.032;5.298;2022-08-21T04:00:14;15.40;99.90
20915;DHT22;10617;52.032;5.298;2022-08-21T04:04:16;15.30;99.90
20915;DHT22;10617;52.032;5.298;2022-08-21T04:08:18;15.30;99.90
20915;DHT22;10617;52.032;5.298;2022-08-21T04:12:20;15.30;99.90
20915;DHT22;10617;52.032;5.298;2022-08-21T04:16:21;15.30;99.90
20915;DHT22;10617;52.032;5.298;2022-08-21T04:20:23;15.30;99.90
20915;DHT22;10617;52.032;5.298;2022-08-21T04:24:26;15.30;99.90
20915;DHT22;10617;52.032;5.298;2022-08-21T04:28:27;15.20;99.90
20915;DHT22;10617;52.032;5.298;2022-08-21T04:32:30;15.20;99.90
20915;DHT22;10617;52.032;5.298;2022-08-21T04:36:32;15.20;99.90
20915;DHT22;10617;52.032;5.298;2022-08-21T04:40:34;15.10;99.90
20915;DHT22;10617;52.032;5.298;2022-08-21T04:44:35;15.10;99.90
20915;DHT22;10617;52.032;5.298;2022-08-21T04:48:37;15.10;99.90
20915;DHT22;10617;52.032;5.298;2022-08-21T04:52:39;15.10;99.90
20915;DHT22;10617;52.032;5.298;2022-08-21T04:56:47;15.10;99.90
20915;DHT22;10617;52.032;5.298;2022-08-21T05:00:52;15.00;99.90
20915;DHT22;10617;52.032;5.298;2022-08-21T05:04:54;15.00;99.90
20915;DHT22;10617;52.032;5.298;2022-08-21T05:08:56;15.00;99.90
20915;DHT22;10617;52.032;5.298;2022-08-21T05:13:02;15.10;99.90
20915;DHT22;10617;52.032;5.298;2022-08-21T05:17:04;15.10;99.90
20915;DHT22;10617;52.032;5.298;2022-08-21T05:21:06;15.10;99.90
20915;DHT22;10617;52.032;5.298;2022-08-21T05:25:08;15.20;99.90
20915;DHT22;10617;52.032;5.298;2022-08-21T05:29:11;15.30;99.90
20915;DHT22;10617;52.032;5.298;2022-08-21T05:33:12;15.30;99.90
20915;DHT22;10617;52.032;5.298;2022-08-21T05:37:14;15.40;99.90
20915;DHT22;10617;52.032;5.298;2022-08-21T05:41:16;15.40;99.90
20915;DHT22;10617;52.032;5.298;2022-08-21T05:45:17;15.50;99.90
20915;DHT22;10617;52.032;5.298;2022-08-21T05:49:19;15.60;99.90
20915;DHT22;10617;52.032;5.298;2022-08-21T05:53:21;15.60;99.90
20915;DHT22;10617;52.032;5.298;2022-08-21T05:57:23;15.70;99.90
20915;DHT22;10617;52.032;5.298;2022-08-21T06:01:26;15.90;99.90
20915;DHT22;10617;52.032;5.298;2022-08-21T06:05:29;16.00;99.90
20915;DHT22;10617;52.032;5.298;2022-08-21T06:09:37;16.10;99.90
20915;DHT22;10617;52.032;5.298;2022-08-21T06:13:39;16.20;99.90
20915;DHT22;10617;52.032;5.298;2022-08-21T06:17:42;16.30;99.90
20915;DHT22;10617;52.032;5.298;2022-08-21T06:21:43;16.40;99.90
20915;DHT22;10617;52.032;5.298;2022-08-21T06:25:45;16.50;99.90
20915;DHT22;10617;52.032;5.298;2022-08-21T06:29:47;16.50;99.90
20915;DHT22;10617;52.032;5.298;2022-08-21T06:33:49;16.70;99.90
20915;DHT22;10617;52.032;5.298;2022-08-21T06:37:51;16.80;99.90
20915;DHT22;10617;52.032;5.298;2022-08-21T06:41:53;16.80;99.90
20915;DHT22;10617;52.032;5.298;2022-08-21T06:45:56;16.90;99.90
20915;DHT22;10617;52.032;5.298;2022-08-21T06:49:57;17.00;99.90
20915;DHT22;10617;52.032;5.298;2022-08-21T06:53:59;17.00;99.90
20915;DHT22;10617;52.032;5.298;2022-08-21T06:58:01;17.10;99.90
20915;DHT22;10617;52.032;5.298;2022-08-21T07:02:03;17.20;99.90
20915;DHT22;10617;52.032;5.298;2022-08-21T07:06:05;17.30;99.90
20915;DHT22;10617;52.032;5.298;2022-08-21T07:10:07;17.40;99.90
20915;DHT22;10617;52.032;5.298;2022-08-21T07:14:09;17.40;99.90
20915;DHT22;10617;52.032;5.298;2022-08-21T07:18:10;17.50;99.90
20915;DHT22;10617;52.032;5.298;2022-08-21T07:22:13;17.50;99.90
20915;DHT22;10617;52.032;5.298;2022-08-21T07:26:18;17.60;99.90
20915;DHT22;10617;52.032;5.298;2022-08-21T07:30:22;17.70;99.90
20915;DHT22;10617;52.032;5.298;2022-08-21T07:34:23;17.80;99.90
20915;DHT22;10617;52.032;5.298;2022-08-21T07:38:25;17.80;99.90
20915;DHT22;10617;52.032;5.298;2022-08-21T07:42:27;17.90;99.90
20915;DHT22;10617;52.032;5.298;2022-08-21T07:46:28;18.00;99.90
20915;DHT22;10617;52.032;5.298;2022-08-21T07:50:30;18.00;99.90
20915;DHT22;10617;52.032;5.298;2022-08-21T07:54:32;18.10;99.90
20915;DHT22;10617;52.032;5.298;2022-08-21T07:58:35;18.20;99.90
20915;DHT22;10617;52.032;5.298;2022-08-21T08:02:36;18.30;99.90
20915;DHT22;10617;52.032;5.298;2022-08-21T08:06:38;18.40;99.90
20915;DHT22;10617;52.032;5.298;2022-08-21T08:10:40;18.40;99.90
20915;DHT22;10617;52.032;5.298;2022-08-21T08:14:41;18.50;99.90
20915;DHT22;10617;52.032;5.298;2022-08-21T08:18:43;18.60;99.90
20915;DHT22;10617;52.032;5.298;2022-08-21T08:22:46;18.70;99.90
20915;DHT22;10617;52.032;5.298;2022-08-21T08:26:50;18.80;99.90
20915;DHT22;10617;52.032;5.298;2022-08-21T08:30:54;18.90;99.90
20915;DHT22;10617;52.032;5.298;2022-08-21T08:34:55;19.00;99.90
20915;DHT22;10617;52.032;5.298;2022-08-21T08:38:57;19.10;99.90
20915;DHT22;10617;52.032;5.298;2022-08-21T08:42:59;19.30;99.90
20915;DHT22;10617;52.032;5.298;2022-08-21T08:47:01;19.40;99.90
20915;DHT22;10617;52.032;5.298;2022-08-21T08:51:03;19.50;99.90
20915;DHT22;10617;52.032;5.298;2022-08-21T08:55:14;19.60;99.90
20915;DHT22;10617;52.032;5.298;2022-08-21T08:59:19;19.70;99.90
20915;DHT22;10617;52.032;5.298;2022-08-21T09:03:23;19.80;99.90
20915;DHT22;10617;52.032;5.298;2022-08-21T09:19:39;20.00;99.90
20915;DHT22;10617;52.032;5.298;2022-08-21T09:23:59;20.20;99.90
20915;DHT22;10617;52.032;5.298;2022-08-21T09:28:01;20.20;99.90
20915;DHT22;10617;52.032;5.298;2022-08-21T09:32:04;20.20;99.90
20915;DHT22;10617;52.032;5.298;2022-08-21T09:36:10;20.20;99.90
20915;DHT22;10617;52.032;5.298;2022-08-21T09:40:25;20.20;99.90
20915;DHT22;10617;52.032;5.298;2022-08-21T09:44:30;20.30;99.90
20915;DHT22;10617;52.032;5.298;2022-08-21T09:48:38;20.50;99.90
20915;DHT22;10617;52.032;5.298;2022-08-21T09:52:45;20.60;99.90
20915;DHT22;10617;52.032;5.298;2022-08-21T10:01:16;20.80;99.90
20915;DHT22;10617;52.032;5.298;2022-08-21T10:05:19;20.90;99.90
20915;DHT22;10617;52.032;5.298;2022-08-21T10:09:21;20.90;99.90
20915;DHT22;10617;52.032;5.298;2022-08-21T10:17:43;21.00;99.90
20915;DHT22;10617;52.032;5.298;2022-08-21T10:21:59;21.10;99.90
20915;DHT22;10617;52.032;5.298;2022-08-21T10:30:50;21.40;99.90
20915;DHT22;10617;52.032;5.298;2022-08-21T10:39:36;21.50;99.90
20915;DHT22;10617;52.032;5.298;2022-08-21T10:48:06;21.60;99.90
20915;DHT22;10617;52.032;5.298;2022-08-21T10:56:36;21.90;99.90
20915;DHT22;10617;52.032;5.298;2022-08-21T11:00:47;21.90;99.90
20915;DHT22;10617;52.032;5.298;2022-08-21T11:04:57;22.00;99.90
20915;DHT22;10617;52.032;5.298;2022-08-21T11:09:17;22.10;99.90
20915;DHT22;10617;52.032;5.298;2022-08-21T11:13:48;22.20;99.90
20915;DHT22;10617;52.032;5.298;2022-08-21T11:18:19;22.30;99.90
20915;DHT22;10617;52.032;5.298;2022-08-21T11:22:52;22.40;99.90
20915;DHT22;10617;52.032;5.298;2022-08-21T11:27:09;22.40;99.90
20915;DHT22;10617;52.032;5.298;2022-08-21T11:35:51;22.70;99.90
20915;DHT22;10617;52.032;5.298;2022-08-21T11:40:08;22.90;99.90
20915;DHT22;10617;52.032;5.298;2022-08-21T11:48:46;22.90;99.90
20915;DHT22;10617;52.032;5.298;2022-08-21T11:57:30;22.80;99.90
20915;DHT22;10617;52.032;5.298;2022-08-21T12:01:36;22.80;99.90
20915;DHT22;10617;52.032;5.298;2022-08-21T12:05:44;23.00;99.90
20915;DHT22;10617;52.032;5.298;2022-08-21T12:09:56;23.10;99.90
20915;DHT22;10617;52.032;5.298;2022-08-21T12:18:28;23.10;99.90
20915;DHT22;10617;52.032;5.298;2022-08-21T12:22:39;23.10;99.90
20915;DHT22;10617;52.032;5.298;2022-08-21T12:30:57;23.00;99.90
20915;DHT22;10617;52.032;5.298;2022-08-21T12:35:20;22.90;99.90
20915;DHT22;10617;52.032;5.298;2022-08-21T12:39:27;22.90;99.90
20915;DHT22;10617;52.032;5.298;2022-08-21T12:47:48;23.10;99.90
20915;DHT22;10617;52.032;5.298;2022-08-21T12:51:57;23.20;99.90
20915;DHT22;10617;52.032;5.298;2022-08-21T12:56:03;23.40;99.90
20915;DHT22;10617;52.032;5.298;2022-08-21T13:00:08;23.50;99.90
20915;DHT22;10617;52.032;5.298;2022-08-21T13:04:19;23.50;99.90
20915;DHT22;10617;52.032;5.298;2022-08-21T13:08:24;23.50;99.90
20915;DHT22;10617;52.032;5.298;2022-08-21T13:12:28;23.40;99.90
20915;DHT22;10617;52.032;5.298;2022-08-21T13:16:34;23.30;99.90
20915;DHT22;10617;52.032;5.298;2022-08-21T13:20:38;23.30;99.90
20915;DHT22;10617;52.032;5.298;2022-08-21T13:24:42;23.30;99.90
20915;DHT22;10617;52.032;5.298;2022-08-21T13:28:45;23.40;99.90
20915;DHT22;10617;52.032;5.298;2022-08-21T13:32:56;23.40;99.90
20915;DHT22;10617;52.032;5.298;2022-08-21T13:37:00;23.50;99.90
20915;DHT22;10617;52.032;5.298;2022-08-21T13:45:26;23.70;99.90
20915;DHT22;10617;52.032;5.298;2022-08-21T13:49:38;23.80;99.90
20915;DHT22;10617;52.032;5.298;2022-08-21T13:57:42;23.70;99.90
20915;DHT22;10617;52.032;5.298;2022-08-21T14:01:57;23.70;99.90
20915;DHT22;10617;52.032;5.298;2022-08-21T14:06:01;23.50;99.90
20915;DHT22;10617;52.032;5.298;2022-08-21T14:10:05;23.50;99.90
20915;DHT22;10617;52.032;5.298;2022-08-21T14:18:22;23.50;99.90
20915;DHT22;10617;52.032;5.298;2022-08-21T14:30:54;23.50;99.90
20915;DHT22;10617;52.032;5.298;2022-08-21T14:34:57;23.40;99.90
20915;DHT22;10617;52.032;5.298;2022-08-21T14:38:59;23.30;99.90
20915;DHT22;10617;52.032;5.298;2022-08-21T14:43:02;23.30;99.90
20915;DHT22;10617;52.032;5.298;2022-08-21T14:47:04;23.20;99.90
20915;DHT22;10617;52.032;5.298;2022-08-21T14:51:06;23.20;99.90
20915;DHT22;10617;52.032;5.298;2022-08-21T14:55:08;23.20;99.90
20915;DHT22;10617;52.032;5.298;2022-08-21T14:59:15;23.20;99.90
20915;DHT22;10617;52.032;5.298;2022-08-21T15:03:17;23.20;99.90
20915;DHT22;10617;52.032;5.298;2022-08-21T15:07:20;23.20;99.90
20915;DHT22;10617;52.032;5.298;2022-08-21T15:11:22;23.20;99.90
20915;DHT22;10617;52.032;5.298;2022-08-21T15:15:44;23.10;99.90
20915;DHT22;10617;52.032;5.298;2022-08-21T15:19:46;23.10;99.90
20915;DHT22;10617;52.032;5.298;2022-08-21T15:23:48;23.10;99.90
20915;DHT22;10617;52.032;5.298;2022-08-21T15:27:50;23.00;99.90
20915;DHT22;10617;52.032;5.298;2022-08-21T15:31:57;23.00;99.90
20915;DHT22;10617;52.032;5.298;2022-08-21T15:35:59;23.00;99.90
20915;DHT22;10617;52.032;5.298;2022-08-21T15:40:03;23.10;99.90
20915;DHT22;10617;52.032;5.298;2022-08-21T15:44:05;23.10;99.90
20915;DHT22;10617;52.032;5.298;2022-08-21T15:48:07;23.20;99.90
20915;DHT22;10617;52.032;5.298;2022-08-21T15:52:08;23.30;99.90
20915;DHT22;10617;52.032;5.298;2022-08-21T15:56:25;23.50;99.90
20915;DHT22;10617;52.032;5.298;2022-08-21T16:00:28;23.90;99.90
20915;DHT22;10617;52.032;5.298;2022-08-21T16:04:32;24.30;99.90
20915;DHT22;10617;52.032;5.298;2022-08-21T16:08:34;24.80;99.90
20915;DHT22;10617;52.032;5.298;2022-08-21T16:12:36;25.20;99.90
20915;DHT22;10617;52.032;5.298;2022-08-21T16:16:39;25.40;99.90
20915;DHT22;10617;52.032;5.298;2022-08-21T16:20:41;25.40;99.90
20915;DHT22;10617;52.032;5.298;2022-08-21T16:24:44;25.20;99.90
20915;DHT22;10617;52.032;5.298;2022-08-21T16:28:45;24.90;99.90
20915;DHT22;10617;52.032;5.298;2022-08-21T16:32:48;24.60;99.90
20915;DHT22;10617;52.032;5.298;2022-08-21T16:36:50;24.40;99.90
20915;DHT22;10617;52.032;5.298;2022-08-21T16:40:51;24.20;99.90
20915;DHT22;10617;52.032;5.298;2022-08-21T16:44:54;24.20;99.90
20915;DHT22;10617;52.032;5.298;2022-08-21T16:48:57;24.10;99.90
20915;DHT22;10617;52.032;5.298;2022-08-21T16:52:58;23.90;99.90
20915;DHT22;10617;52.032;5.298;2022-08-21T16:57:00;23.80;99.90
20915;DHT22;10617;52.032;5.298;2022-08-21T17:01:03;23.70;99.90
20915;DHT22;10617;52.032;5.298;2022-08-21T17:05:06;23.60;99.90
20915;DHT22;10617;52.032;5.298;2022-08-21T17:09:14;23.50;99.90
20915;DHT22;10617;52.032;5.298;2022-08-21T17:13:16;23.50;99.90
20915;DHT22;10617;52.032;5.298;2022-08-21T17:17:17;23.30;99.90
20915;DHT22;10617;52.032;5.298;2022-08-21T17:21:19;23.20;99.90
20915;DHT22;10617;52.032;5.298;2022-08-21T17:25:21;23.20;99.90
20915;DHT22;10617;52.032;5.298;2022-08-21T17:29:24;23.10;99.90
20915;DHT22;10617;52.032;5.298;2022-08-21T17:33:29;23.10;99.90
20915;DHT22;10617;52.032;5.298;2022-08-21T17:37:33;23.00;99.90
20915;DHT22;10617;52.032;5.298;2022-08-21T17:41:35;23.00;99.90
20915;DHT22;10617;52.032;5.298;2022-08-21T17:45:36;23.00;99.90
20915;DHT22;10617;52.032;5.298;2022-08-21T17:49:39;23.00;99.90
20915;DHT22;10617;52.032;5.298;2022-08-21T17:53:41;22.90;99.90
20915;DHT22;10617;52.032;5.298;2022-08-21T17:57:44;22.90;99.90
20915;DHT22;10617;52.032;5.298;2022-08-21T18:01:46;22.80;99.90
20915;DHT22;10617;52.032;5.298;2022-08-21T18:05:49;22.80;99.90
20915;DHT22;10617;52.032;5.298;2022-08-21T18:09:52;22.70;99.90
20915;DHT22;10617;52.032;5.298;2022-08-21T18:13:58;22.70;99.90
20915;DHT22;10617;52.032;5.298;2022-08-21T18:18:07;22.70;99.90
20915;DHT22;10617;52.032;5.298;2022-08-21T18:22:08;22.70;99.90
20915;DHT22;10617;52.032;5.298;2022-08-21T18:26:15;22.60;99.90
20915;DHT22;10617;52.032;5.298;2022-08-21T18:30:19;22.50;99.90
20915;DHT22;10617;52.032;5.298;2022-08-21T18:34:27;22.50;99.90
20915;DHT22;10617;52.032;5.298;2022-08-21T18:38:29;22.50;99.90
20915;DHT22;10617;52.032;5.298;2022-08-21T18:42:33;22.40;99.90
20915;DHT22;10617;52.032;5.298;2022-08-21T18:46:36;22.30;99.90
20915;DHT22;10617;52.032;5.298;2022-08-21T18:50:39;22.30;99.90
20915;DHT22;10617;52.032;5.298;2022-08-21T18:54:42;22.20;99.90
20915;DHT22;10617;52.032;5.298;2022-08-21T18:58:43;22.10;99.90
20915;DHT22;10617;52.032;5.298;2022-08-21T19:02:46;22.00;99.90
20915;DHT22;10617;52.032;5.298;2022-08-21T19:06:47;21.90;99.90
20915;DHT22;10617;52.032;5.298;2022-08-21T19:10:50;21.80;99.90
20915;DHT22;10617;52.032;5.298;2022-08-21T19:14:55;21.70;99.90
20915;DHT22;10617;52.032;5.298;2022-08-21T19:18:59;21.70;99.90
20915;DHT22;10617;52.032;5.298;2022-08-21T19:23:04;21.60;99.90
20915;DHT22;10617;52.032;5.298;2022-08-21T19:27:06;21.60;99.90
20915;DHT22;10617;52.032;5.298;2022-08-21T19:31:13;21.50;99.90
20915;DHT22;10617;52.032;5.298;2022-08-21T19:35:16;21.40;99.90
20915;DHT22;10617;52.032;5.298;2022-08-21T19:39:18;21.40;99.90
20915;DHT22;10617;52.032;5.298;2022-08-21T19:43:20;21.30;99.90
20915;DHT22;10617;52.032;5.298;2022-08-21T19:47:23;21.30;99.90
20915;DHT22;10617;52.032;5.298;2022-08-21T19:51:29;21.20;99.90
20915;DHT22;10617;52.032;5.298;2022-08-21T19:55:31;21.10;99.90
20915;DHT22;10617;52.032;5.298;2022-08-21T19:59:34;21.10;99.90
20915;DHT22;10617;52.032;5.298;2022-08-21T20:03:36;21.00;99.90
20915;DHT22;10617;52.032;5.298;2022-08-21T20:07:38;21.00;99.90
20915;DHT22;10617;52.032;5.298;2022-08-21T20:11:41;20.90;99.90
20915;DHT22;10617;52.032;5.298;2022-08-21T20:15:43;20.90;99.90
20915;DHT22;10617;52.032;5.298;2022-08-21T20:19:46;20.80;99.90
20915;DHT22;10617;52.032;5.298;2022-08-21T20:23:51;20.70;99.90
20915;DHT22;10617;52.032;5.298;2022-08-21T20:27:53;20.70;99.90
20915;DHT22;10617;52.032;5.298;2022-08-21T20:31:55;20.60;99.90
20915;DHT22;10617;52.032;5.298;2022-08-21T20:35:57;20.60;99.90
20915;DHT22;10617;52.032;5.298;2022-08-21T20:39:59;20.60;99.90
20915;DHT22;10617;52.032;5.298;2022-08-21T20:44:01;20.50;99.90
20915;DHT22;10617;52.032;5.298;2022-08-21T20:52:15;20.40;99.90
20915;DHT22;10617;52.032;5.298;2022-08-21T20:56:19;20.40;99.90
20915;DHT22;10617;52.032;5.298;2022-08-21T21:00:25;20.40;99.90
20915;DHT22;10617;52.032;5.298;2022-08-21T21:08:41;20.30;99.90
20915;DHT22;10617;52.032;5.298;2022-08-21T21:12:47;20.30;99.90
20915;DHT22;10617;52.032;5.298;2022-08-21T21:16:54;20.20;99.90
20915;DHT22;10617;52.032;5.298;2022-08-21T21:21:07;20.20;99.90
20915;DHT22;10617;52.032;5.298;2022-08-21T21:25:14;20.20;99.90
20915;DHT22;10617;52.032;5.298;2022-08-21T21:29:24;20.10;99.90
20915;DHT22;10617;52.032;5.298;2022-08-21T21:33:26;20.10;99.90
20915;DHT22;10617;52.032;5.298;2022-08-21T21:37:31;20.00;99.90
20915;DHT22;10617;52.032;5.298;2022-08-21T21:41:36;20.00;99.90
20915;DHT22;10617;52.032;5.298;2022-08-21T21:45:52;20.00;99.90
20915;DHT22;10617;52.032;5.298;2022-08-21T21:54:29;19.90;99.90
20915;DHT22;10617;52.032;5.298;2022-08-21T22:02:53;19.90;99.90
20915;DHT22;10617;52.032;5.298;2022-08-21T22:07:12;19.90;99.90
20915;DHT22;10617;52.032;5.298;2022-08-21T22:15:24;19.80;99.90
20915;DHT22;10617;52.032;5.298;2022-08-21T22:19:27;19.80;99.90
20915;DHT22;10617;52.032;5.298;2022-08-21T22:23:32;19.80;99.90
20915;DHT22;10617;52.032;5.298;2022-08-21T22:27:36;19.70;99.90
20915;DHT22;10617;52.032;5.298;2022-08-21T22:31:39;19.70;99.90
20915;DHT22;10617;52.032;5.298;2022-08-21T22:35:41;19.70;99.90
20915;DHT22;10617;52.032;5.298;2022-08-21T22:39:44;19.70;99.90
20915;DHT22;10617;52.032;5.298;2022-08-21T22:43:56;19.70;99.90
20915;DHT22;10617;52.032;5.298;2022-08-21T22:48:02;19.80;99.90
20915;DHT22;10617;52.032;5.298;2022-08-21T22:56:29;19.80;99.90
20915;DHT22;10617;52.032;5.298;2022-08-21T23:04:43;19.80;99.90
20915;DHT22;10617;52.032;5.298;2022-08-21T23:08:45;19.80;99.90
20915;DHT22;10617;52.032;5.298;2022-08-21T23:12:49;19.70;99.90
20915;DHT22;10617;52.032;5.298;2022-08-21T23:16:52;19.70;99.90
20915;DHT22;10617;52.032;5.298;2022-08-21T23:21:04;19.70;99.90
20915;DHT22;10617;52.032;5.298;2022-08-21T23:29:33;19.70;99.90
20915;DHT22;10617;52.032;5.298;2022-08-21T23:37:52;19.70;99.90
20915;DHT22;10617;52.032;5.298;2022-08-21T23:42:08;19.70;99.90
20915;DHT22;10617;52.032;5.298;2022-08-21T23:46:30;19.70;99.90
20915;DHT22;10617;52.032;5.298;2022-08-21T23:55:12;19.70;99.90
